Accueil
METAR-TAF:

METAR-TAF

Aéroports :

Aéroport de Kangiqsualujjuaq

Kangiqsualujjuaq, Québec, Canada

latitude: 58-43N, longitude: 065-59W, altitude: 60 m

Observation

Le bulletin a été fait il y a 6 heures et 7 minutes, à 22:00 UTC
Vent 22 kt de ouest/nord-ouest avec des rafales jusqu'à 38 kt
Température -4°C
Humidité 93%
Pression 998 hPa
Visibilité: 1.2 km
Nuages fragmentés à une hauteur de 800 ft
Ciel couvert à une hauteur de 1300 ft
Chasse-neige élevée

METAR: CYLU 112200Z 29022G38KT 3/4SM BLSN BKN008 OVC013 VV019 M04/M05 A2948 RMK ST2ST1BLSN5 LAST OBS/NEXT 121300UTC SNW CVR/MUCH LOOSE SLP990

Heure: 23:07 (04:07 UTC)


TAF: absent

Observations et prévisions météorologiques de plus de 4000 aéroports (messages METAR et TAF).

Les stations disponibles sont représentées par des disques jaunes et rouges sur la carte.

Passer la souris dessus pour voir le nom de la station.

Cliquer dessus pour voir les observations et prévisions météorologiques.

Pour changer de carte: cliquez sur les boutons verts avec une croix noire pour zoomer, sur le bouton vert avec un tiret pour effectuer un zoom arrière, ou sur les flèches vertes pour les cartes adjacentes.


METAR-TAF: